Flight Track Log - Related Links

Times and Time Zones

All times are in EDT time to prevent confusion due to time zone crossing. See the RPA3253 flight status page for this flight to view local times or setup timezone preferences in your user account.

Time Position Orientation Groundspeed Altitude Reporting Facility
EDT Latitude Longitude Course Direction KTS MPH feet Rate Location/Type
Sun 10:37:47 PM 35.2353 -80.9594 251° West 160 184 1,600  Level Atlanta Center
Sun 10:38:17 PM 35.2544 -80.9714 333° Northwest 165 190 2,200 1,648 Climbing Atlanta Center
Sun 10:39:18 PM 35.2933 -81.0261 311° West 225 259 4,100 1,918 Climbing Atlanta Center
Sun 10:39:54 PM 35.2881 -81.0694 262° West 246 283 5,300 2,250 Climbing Atlanta Center
Sun 10:40:54 PM 35.2481 -81.1447 237° Southwest 272 313 7,700 2,250 Climbing Atlanta Center
Sun 10:41:00 PM 35.1078 -81.2772 192° South  Level FlightAware Approximate
Sun 10:41:54 PM 35.2061 -81.2222 236° Southwest 277 319 9,800  Level Atlanta Center
Sun 10:42:00 PM 35.0579 -81.3725 251° West  Level FlightAware Approximate
Sun 10:42:54 PM 35.1639 -81.2950 235° Southwest 295 339 11,300  Level Atlanta Center
Sun 10:43:54 PM 35.1139 -81.3881 237° Southwest 321 369 13,600 1,900 Climbing Atlanta Center
Sun 10:44:54 PM 35.0594 -81.4811 234° Southwest 340 391 15,100 1,650 Climbing Atlanta Center
Sun 10:45:54 PM 35.0050 -81.5792 236° Southwest 353 406 16,900 1,850 Climbing Atlanta Center
Sun 10:46:54 PM 34.9617 -81.7019 247° West 363 418 18,800 1,750 Climbing Atlanta Center
Sun 10:47:54 PM 34.9264 -81.8219 250° West 368 423 20,400 1,150 Climbing Atlanta Center
Sun 10:48:54 PM 34.8656 -81.9250 234° Southwest 373 429 21,100 650 Climbing Atlanta Center
Sun 10:49:54 PM 34.8128 -82.0172 235° Southwest 378 435 21,700 850 Climbing Atlanta Center
Sun 10:50:54 PM 34.7539 -82.1225 236° Southwest 378 435 22,800 1,000 Climbing Atlanta Center
Sun 10:51:54 PM 34.6950 -82.2275 236° Southwest 378 435 23,700 950 Climbing Atlanta Center
Sun 10:52:54 PM 34.6319 -82.3372 235° Southwest 384 442 24,700 1,050 Climbing Atlanta Center
Sun 10:53:54 PM 34.5686 -82.4469 235° Southwest 394 453 25,800 1,033 Climbing Atlanta Center
Sun 10:55:54 PM 34.4256 -82.6864 234° Southwest 421 484 27,800 933 Climbing Atlanta Center
Sun 10:56:54 PM 34.3703 -82.7881 237° Southwest 421 484 28,600 1,000 Climbing Atlanta Center
Sun 10:57:54 PM 34.3003 -82.9047 234° Southwest 434 499 29,800 1,100 Climbing Atlanta Center
Sun 10:58:54 PM 34.2303 -83.0211 234° Southwest 429 494 30,800 1,000 Climbing Atlanta Center
Sun 10:59:54 PM 34.1667 -83.1350 236° Southwest 429 494 31,800 900 Climbing Atlanta Center
Sun 11:00:54 PM 34.0986 -83.2486 234° Southwest 424 488 32,600 700 Climbing Atlanta Center
Sun 11:01:54 PM 34.0325 -83.3619 235° Southwest 424 488 33,200 700 Climbing Atlanta Center
Sun 11:02:54 PM 33.9600 -83.4878 235° Southwest 424 488 34,000 400 Climbing Atlanta Center
Sun 11:03:54 PM 33.8917 -83.6033 235° Southwest 429 494 34,000  Level Atlanta Center
Sun 11:04:54 PM 33.8211 -83.7239 235° Southwest 439 505 34,000  Level Atlanta Center
Sun 11:05:54 PM 33.7461 -83.8464 234° Southwest 444 511 34,000  Level Atlanta Center
Sun 11:06:54 PM 33.6731 -83.9664 234° Southwest 444 511 34,000  Level Atlanta Center
Sun 11:07:54 PM 33.6022 -84.0886 235° Southwest 444 511 34,000  Level Atlanta Center
Sun 11:08:54 PM 33.5353 -84.1958 233° Southwest 449 517 34,000  Level Atlanta Center
Sun 11:09:54 PM 33.4619 -84.3228 235° Southwest 449 517 34,000  Level Atlanta Center
Sun 11:10:54 PM 33.3886 -84.4444 234° Southwest 449 517 34,000  Level Atlanta Center
Sun 11:11:54 PM 33.3153 -84.5658 234° Southwest 449 517 34,000  Level Atlanta Center
Sun 11:12:54 PM 33.2436 -84.6847 234° Southwest 449 517 34,000  Level Atlanta Center
Sun 11:13:54 PM 33.1636 -84.8181 234° Southwest 449 517 34,000  Level Atlanta Center
Sun 11:14:55 PM 33.0939 -84.9364 235° Southwest 449 517 34,000  Level Atlanta Center
Sun 11:15:54 PM 33.0156 -85.0569 232° Southwest 450 518 34,000  Level Atlanta Center
Sun 11:16:54 PM 32.9500 -85.1553 232° Southwest 444 511 34,000  Level Atlanta Center
Sun 11:17:54 PM 32.8781 -85.2781 235° Southwest 444 511 34,000  Level Atlanta Center
Sun 11:18:54 PM 32.8017 -85.4006 233° Southwest 456 525 34,000  Level Atlanta Center
Sun 11:19:54 PM 32.7272 -85.5203 234° Southwest 461 531 34,000  Level Atlanta Center
Sun 11:20:54 PM 32.6525 -85.6400 233° Southwest 461 531 34,000  Level Atlanta Center
Sun 11:21:54 PM 32.5758 -85.7594 233° Southwest 461 531 34,000  Level Atlanta Center
Sun 11:22:54 PM 32.4883 -85.8981 233° Southwest 467 537 34,000  Level Atlanta Center
Sun 11:23:54 PM 32.4175 -86.0147 234° Southwest 467 537 34,000  Level Atlanta Center
Sun 11:24:54 PM 32.3361 -86.1383 232° Southwest 467 537 34,000  Level Atlanta Center
Sun 11:25:54 PM 32.2631 -86.2569 234° Southwest 462 532 34,000  Level Atlanta Center
Sun 11:26:54 PM 32.1922 -86.3706 234° Southwest 468 539 34,000  Level Atlanta Center
Sun 11:27:54 PM 32.1128 -86.4861 231° Southwest 468 539 34,000  Level Atlanta Center
Sun 11:28:54 PM 32.0289 -86.5989 229° Southwest 468 539 34,000  Level Atlanta Center
Sun 11:29:54 PM 31.9325 -86.7258 228° Southwest 468 539 34,000  Level Atlanta Center
Sun 11:30:54 PM 31.8486 -86.8383 229° Southwest 468 539 34,000  Level Atlanta Center
Sun 11:31:54 PM 31.7644 -86.9528 229° Southwest 474 545 34,000  Level Atlanta Center
Sun 11:33:48 PM 31.6056 -87.1703 229° Southwest 462 532 34,000  Level Houston Center
Sun 11:34:49 PM 31.5242 -87.2847 230° Southwest 458 527 34,000  Level Houston Center
Sun 11:35:50 PM 31.4411 -87.3975 229° Southwest 458 527 34,000  Level Houston Center
Sun 11:36:50 PM 31.3583 -87.5103 229° Southwest 458 527 34,000  Level Houston Center
Sun 11:37:51 PM 31.2750 -87.6222 229° Southwest 456 525 34,000  Level Houston Center
Sun 11:38:52 PM 31.1875 -87.7417 229° Southwest 458 527 34,000  Level Houston Center
Sun 11:39:52 PM 31.1039 -87.8544 229° Southwest 459 528 34,000  Level Houston Center
Sun 11:40:53 PM 31.0194 -87.9667 229° Southwest 461 531 34,000  Level Houston Center
Sun 11:41:54 PM 30.9333 -88.0792 228° Southwest 464 534 34,000  Level Houston Center
Sun 11:42:54 PM 30.8492 -88.1942 230° Southwest 468 539 34,000  Level Houston Center
Sun 11:43:55 PM 30.7633 -88.3069 228° Southwest 465 535 34,000  Level Houston Center
Sun 11:44:56 PM 30.6908 -88.4336 236° Southwest 464 534 34,000  Level Houston Center
Sun 11:45:56 PM 30.6331 -88.5650 243° Southwest 455 524 34,000 -1,190 Level Houston Center
Sun 11:46:57 PM 30.5744 -88.6961 243° Southwest 457 526 31,600 -2,529 Descending Houston Center
Sun 11:47:57 PM 30.5178 -88.8256 243° Southwest 451 519 28,900 -2,678 Descending Houston Center
Sun 11:48:58 PM 30.4631 -88.9506 243° Southwest 447 514 26,200 -2,607 Descending Houston Center
Sun 11:49:59 PM 30.4081 -89.0722 242° Southwest 426 490 23,600 -2,479 Descending Houston Center
Sun 11:50:59 PM 30.3631 -89.1914 246° West 408 470 21,200 -2,571 Descending Houston Center
Sun 11:51:30 PM 30.3375 -89.2661 248° West 398 458 19,700 -2,548 Descending Houston Center
Sun 11:52:12 PM 30.3069 -89.3469 246° West 394 453 18,100 -2,133 Descending Houston Center
Sun 11:53:00 PM 30.2781 -89.4236 246° West 384 442 16,500 -2,092 Descending Houston Center
Sun 11:54:01 PM 30.2394 -89.5336 248° West 370 426 14,300 -2,182 Descending Houston Center
Sun 11:55:01 PM 30.2086 -89.6453 252° West 362 417 12,100 -1,785 Descending Houston Center
Sun 11:56:02 PM 30.1889 -89.7542 258° West 343 395 10,700 -1,537 Descending Houston Center
Sun 11:57:02 PM 30.1717 -89.8483 258° West 303 349 9,000 -1,835 Descending Houston Center
Sun 11:58:03 PM 30.1531 -89.9403 257° West 293 337 7,000 -1,785 Descending Houston Center
Sun 11:59:03 PM 30.1367 -90.0272 258° West 281 323 5,400 -1,488 Descending Houston Center
Mon 12:00:04 AM 30.1211 -90.1067 257° West 261 300 4,000 -1,388 Descending Houston Center
Mon 12:01:04 AM 30.1072 -90.1817 258° West 250 288 2,600 -1,289 Descending Houston Center
Mon 12:02:05 AM 30.0667 -90.2247 223° Southwest 224 258 1,400 -1,041 Descending Houston Center
Mon 12:03:05 AM 30.0236 -90.2394 196° South 187 215 500 -545 Descending Houston Center
Mon 12:04:06 AM 29.9825 -90.2536 197° South 181 208 300 -197 Descending Houston Center
Mon 12:06:00 AM 29.9833 -90.2500 245° Southwest  Level FlightAware Approximate
Mon 12:13:00 AM 29.9934 -90.2580 245° Southwest  Level Estimated

Login

Don't have an account? Register now (free) for customized features, flight alerts, and more!